sensor_id;sensor_type;location;lat;lon;timestamp;temperature;humidity
46438;DHT22;32137;48.728;9.142;2023-05-25T00:01:02;12.80;99.90
46438;DHT22;32137;48.728;9.142;2023-05-25T00:03:28;12.80;99.90
46438;DHT22;32137;48.728;9.142;2023-05-25T00:05:55;12.70;99.90
46438;DHT22;32137;48.728;9.142;2023-05-25T00:08:22;12.70;99.90
46438;DHT22;32137;48.728;9.142;2023-05-25T00:10:48;12.70;99.90
46438;DHT22;32137;48.728;9.142;2023-05-25T00:13:13;12.70;99.90
46438;DHT22;32137;48.728;9.142;2023-05-25T00:15:39;12.70;99.90
46438;DHT22;32137;48.728;9.142;2023-05-25T00:18:04;12.70;99.90
46438;DHT22;32137;48.728;9.142;2023-05-25T00:20:30;12.60;99.90
46438;DHT22;32137;48.728;9.142;2023-05-25T00:22:57;12.60;99.90
46438;DHT22;32137;48.728;9.142;2023-05-25T00:25:23;12.60;99.90
46438;DHT22;32137;48.728;9.142;2023-05-25T00:27:49;12.70;99.90
46438;DHT22;32137;48.728;9.142;2023-05-25T00:30:14;12.60;99.90
46438;DHT22;32137;48.728;9.142;2023-05-25T00:32:40;12.60;99.90
46438;DHT22;32137;48.728;9.142;2023-05-25T00:35:06;12.60;99.90
46438;DHT22;32137;48.728;9.142;2023-05-25T00:37:32;12.60;99.90
46438;DHT22;32137;48.728;9.142;2023-05-25T00:39:57;12.60;99.90
46438;DHT22;32137;48.728;9.142;2023-05-25T00:42:23;12.60;99.90
46438;DHT22;32137;48.728;9.142;2023-05-25T00:44:49;12.60;99.90
46438;DHT22;32137;48.728;9.142;2023-05-25T00:47:15;12.60;99.90
46438;DHT22;32137;48.728;9.142;2023-05-25T00:49:42;12.60;99.90
46438;DHT22;32137;48.728;9.142;2023-05-25T00:52:10;12.60;99.90
46438;DHT22;32137;48.728;9.142;2023-05-25T00:54:37;12.60;99.90
46438;DHT22;32137;48.728;9.142;2023-05-25T00:57:03;12.50;99.90
46438;DHT22;32137;48.728;9.142;2023-05-25T00:59:31;12.50;99.90
46438;DHT22;32137;48.728;9.142;2023-05-25T01:02:02;12.40;99.90
46438;DHT22;32137;48.728;9.142;2023-05-25T01:04:30;12.50;99.90
46438;DHT22;32137;48.728;9.142;2023-05-25T01:06:57;12.40;99.90
46438;DHT22;32137;48.728;9.142;2023-05-25T01:09:26;12.30;99.90
46438;DHT22;32137;48.728;9.142;2023-05-25T01:11:53;12.30;99.90
46438;DHT22;32137;48.728;9.142;2023-05-25T01:14:20;12.30;99.90
46438;DHT22;32137;48.728;9.142;2023-05-25T01:16:47;12.30;99.90
46438;DHT22;32137;48.728;9.142;2023-05-25T01:19:12;12.20;99.90
46438;DHT22;32137;48.728;9.142;2023-05-25T01:27:27;12.10;99.90
46438;DHT22;32137;48.728;9.142;2023-05-25T01:29:58;12.10;99.90
46438;DHT22;32137;48.728;9.142;2023-05-25T01:32:23;12.10;99.90
46438;DHT22;32137;48.728;9.142;2023-05-25T01:34:49;12.10;99.90
46438;DHT22;32137;48.728;9.142;2023-05-25T01:37:17;12.00;99.90
46438;DHT22;32137;48.728;9.142;2023-05-25T01:39:43;12.00;99.90
46438;DHT22;32137;48.728;9.142;2023-05-25T01:42:09;11.90;99.90
46438;DHT22;32137;48.728;9.142;2023-05-25T01:44:35;11.90;99.90
46438;DHT22;32137;48.728;9.142;2023-05-25T01:47:06;11.90;99.90
46438;DHT22;32137;48.728;9.142;2023-05-25T01:52:16;11.80;99.90
46438;DHT22;32137;48.728;9.142;2023-05-25T01:55:13;11.90;99.90
46438;DHT22;32137;48.728;9.142;2023-05-25T01:57:42;11.80;99.90
46438;DHT22;32137;48.728;9.142;2023-05-25T02:00:11;11.80;99.90
46438;DHT22;32137;48.728;9.142;2023-05-25T02:02:40;11.70;99.90
46438;DHT22;32137;48.728;9.142;2023-05-25T02:05:07;11.80;99.90
46438;DHT22;32137;48.728;9.142;2023-05-25T02:07:33;11.70;99.90
46438;DHT22;32137;48.728;9.142;2023-05-25T02:09:58;11.70;99.90
46438;DHT22;32137;48.728;9.142;2023-05-25T02:12:24;11.70;99.90
46438;DHT22;32137;48.728;9.142;2023-05-25T02:14:50;11.70;99.90
46438;DHT22;32137;48.728;9.142;2023-05-25T02:17:15;11.60;99.90
46438;DHT22;32137;48.728;9.142;2023-05-25T02:19:44;11.60;99.90
46438;DHT22;32137;48.728;9.142;2023-05-25T02:22:10;11.60;99.90
46438;DHT22;32137;48.728;9.142;2023-05-25T02:24:36;11.60;99.90
46438;DHT22;32137;48.728;9.142;2023-05-25T02:27:03;11.60;99.90
46438;DHT22;32137;48.728;9.142;2023-05-25T02:29:28;11.50;99.90
46438;DHT22;32137;48.728;9.142;2023-05-25T02:31:54;11.50;99.90
46438;DHT22;32137;48.728;9.142;2023-05-25T02:34:20;11.50;99.90
46438;DHT22;32137;48.728;9.142;2023-05-25T02:36:46;11.50;99.90
46438;DHT22;32137;48.728;9.142;2023-05-25T02:39:11;11.50;99.90
46438;DHT22;32137;48.728;9.142;2023-05-25T02:41:37;11.50;99.90
46438;DHT22;32137;48.728;9.142;2023-05-25T02:44:03;11.40;99.90
46438;DHT22;32137;48.728;9.142;2023-05-25T02:46:29;11.40;99.90
46438;DHT22;32137;48.728;9.142;2023-05-25T02:48:54;11.30;99.90
46438;DHT22;32137;48.728;9.142;2023-05-25T02:51:20;11.30;99.90
46438;DHT22;32137;48.728;9.142;2023-05-25T02:53:46;11.30;99.90
46438;DHT22;32137;48.728;9.142;2023-05-25T02:56:12;11.20;99.90
46438;DHT22;32137;48.728;9.142;2023-05-25T02:58:38;11.20;99.90
46438;DHT22;32137;48.728;9.142;2023-05-25T03:01:03;11.10;99.90
46438;DHT22;32137;48.728;9.142;2023-05-25T03:03:30;11.10;99.90
46438;DHT22;32137;48.728;9.142;2023-05-25T03:05:56;11.00;99.90
46438;DHT22;32137;48.728;9.142;2023-05-25T03:08:22;11.00;99.90
46438;DHT22;32137;48.728;9.142;2023-05-25T03:10:47;11.10;99.90
46438;DHT22;32137;48.728;9.142;2023-05-25T03:13:13;11.10;99.90
46438;DHT22;32137;48.728;9.142;2023-05-25T03:15:39;11.00;99.90
46438;DHT22;32137;48.728;9.142;2023-05-25T03:18:05;11.00;99.90
46438;DHT22;32137;48.728;9.142;2023-05-25T03:20:31;11.00;99.90
46438;DHT22;32137;48.728;9.142;2023-05-25T03:22:57;10.90;99.90
46438;DHT22;32137;48.728;9.142;2023-05-25T03:25:23;10.90;99.90
46438;DHT22;32137;48.728;9.142;2023-05-25T03:27:51;10.90;99.90
46438;DHT22;32137;48.728;9.142;2023-05-25T03:30:18;10.90;99.90
46438;DHT22;32137;48.728;9.142;2023-05-25T03:32:44;10.80;99.90
46438;DHT22;32137;48.728;9.142;2023-05-25T03:35:09;10.80;99.90
46438;DHT22;32137;48.728;9.142;2023-05-25T03:37:35;10.80;99.90
46438;DHT22;32137;48.728;9.142;2023-05-25T03:40:00;10.80;99.90
46438;DHT22;32137;48.728;9.142;2023-05-25T03:42:27;10.80;99.90
46438;DHT22;32137;48.728;9.142;2023-05-25T03:44:52;10.80;99.90
46438;DHT22;32137;48.728;9.142;2023-05-25T03:47:18;10.70;99.90
46438;DHT22;32137;48.728;9.142;2023-05-25T03:49:43;10.70;99.90
46438;DHT22;32137;48.728;9.142;2023-05-25T03:52:09;10.70;99.90
46438;DHT22;32137;48.728;9.142;2023-05-25T03:54:34;10.70;99.90
46438;DHT22;32137;48.728;9.142;2023-05-25T03:57:00;10.70;99.90
46438;DHT22;32137;48.728;9.142;2023-05-25T03:59:28;10.70;99.90
46438;DHT22;32137;48.728;9.142;2023-05-25T04:01:54;10.70;99.90
46438;DHT22;32137;48.728;9.142;2023-05-25T04:04:19;10.70;99.90
46438;DHT22;32137;48.728;9.142;2023-05-25T04:06:45;10.70;99.90
46438;DHT22;32137;48.728;9.142;2023-05-25T04:09:13;10.70;99.90
46438;DHT22;32137;48.728;9.142;2023-05-25T04:11:39;10.70;99.90
46438;DHT22;32137;48.728;9.142;2023-05-25T04:14:05;10.60;99.90
46438;DHT22;32137;48.728;9.142;2023-05-25T04:16:30;10.70;99.90
46438;DHT22;32137;48.728;9.142;2023-05-25T04:18:56;10.70;99.90
46438;DHT22;32137;48.728;9.142;2023-05-25T04:21:22;10.70;99.90
46438;DHT22;32137;48.728;9.142;2023-05-25T04:23:47;10.70;99.90
46438;DHT22;32137;48.728;9.142;2023-05-25T04:26:13;10.60;99.90
46438;DHT22;32137;48.728;9.142;2023-05-25T04:28:41;10.60;99.90
46438;DHT22;32137;48.728;9.142;2023-05-25T04:31:07;10.60;99.90
46438;DHT22;32137;48.728;9.142;2023-05-25T04:33:33;10.60;99.90
46438;DHT22;32137;48.728;9.142;2023-05-25T04:36:03;10.60;99.90
46438;DHT22;32137;48.728;9.142;2023-05-25T04:38:29;10.60;99.90
46438;DHT22;32137;48.728;9.142;2023-05-25T04:40:55;10.50;99.90
46438;DHT22;32137;48.728;9.142;2023-05-25T04:43:22;10.60;99.90
46438;DHT22;32137;48.728;9.142;2023-05-25T04:45:51;10.60;99.90
46438;DHT22;32137;48.728;9.142;2023-05-25T04:48:17;10.60;99.90
46438;DHT22;32137;48.728;9.142;2023-05-25T04:50:42;10.60;99.90
46438;DHT22;32137;48.728;9.142;2023-05-25T04:53:08;10.60;99.90
46438;DHT22;32137;48.728;9.142;2023-05-25T04:55:34;10.60;99.90
46438;DHT22;32137;48.728;9.142;2023-05-25T04:58:00;10.60;99.90
46438;DHT22;32137;48.728;9.142;2023-05-25T05:00:26;10.60;99.90
46438;DHT22;32137;48.728;9.142;2023-05-25T05:02:53;10.60;99.90
46438;DHT22;32137;48.728;9.142;2023-05-25T05:05:20;10.60;99.90
46438;DHT22;32137;48.728;9.142;2023-05-25T05:07:46;10.60;99.90
46438;DHT22;32137;48.728;9.142;2023-05-25T05:10:12;10.60;99.90
46438;DHT22;32137;48.728;9.142;2023-05-25T05:12:38;10.60;99.90
46438;DHT22;32137;48.728;9.142;2023-05-25T05:15:04;10.60;99.90
46438;DHT22;32137;48.728;9.142;2023-05-25T05:17:29;10.70;99.90
46438;DHT22;32137;48.728;9.142;2023-05-25T05:19:55;10.60;99.90
46438;DHT22;32137;48.728;9.142;2023-05-25T05:22:21;10.60;99.90
46438;DHT22;32137;48.728;9.142;2023-05-25T05:24:46;10.70;99.90
46438;DHT22;32137;48.728;9.142;2023-05-25T05:27:12;10.70;99.90
46438;DHT22;32137;48.728;9.142;2023-05-25T05:29:39;10.70;99.90
46438;DHT22;32137;48.728;9.142;2023-05-25T05:32:05;10.70;99.90
46438;DHT22;32137;48.728;9.142;2023-05-25T05:34:31;10.70;99.90
46438;DHT22;32137;48.728;9.142;2023-05-25T05:36:57;10.70;99.90
46438;DHT22;32137;48.728;9.142;2023-05-25T05:39:27;10.80;99.90
46438;DHT22;32137;48.728;9.142;2023-05-25T05:41:54;10.80;99.90
46438;DHT22;32137;48.728;9.142;2023-05-25T05:44:20;10.90;99.90
46438;DHT22;32137;48.728;9.142;2023-05-25T05:46:46;10.80;99.90
46438;DHT22;32137;48.728;9.142;2023-05-25T05:49:12;10.90;99.90
46438;DHT22;32137;48.728;9.142;2023-05-25T05:51:37;10.90;99.90
46438;DHT22;32137;48.728;9.142;2023-05-25T05:54:03;11.00;99.90
46438;DHT22;32137;48.728;9.142;2023-05-25T05:56:29;11.00;99.90
46438;DHT22;32137;48.728;9.142;2023-05-25T05:58:55;11.00;99.90
46438;DHT22;32137;48.728;9.142;2023-05-25T06:01:21;11.10;99.90
46438;DHT22;32137;48.728;9.142;2023-05-25T06:03:47;11.10;99.90
46438;DHT22;32137;48.728;9.142;2023-05-25T06:06:13;11.10;99.90
46438;DHT22;32137;48.728;9.142;2023-05-25T06:08:39;11.10;99.90
46438;DHT22;32137;48.728;9.142;2023-05-25T06:11:07;11.20;99.90
46438;DHT22;32137;48.728;9.142;2023-05-25T06:13:33;11.30;99.90
46438;DHT22;32137;48.728;9.142;2023-05-25T06:15:58;11.30;99.90
46438;DHT22;32137;48.728;9.142;2023-05-25T06:18:25;11.40;99.90
46438;DHT22;32137;48.728;9.142;2023-05-25T06:20:50;11.40;99.90
46438;DHT22;32137;48.728;9.142;2023-05-25T06:23:16;11.40;99.90
46438;DHT22;32137;48.728;9.142;2023-05-25T06:25:43;11.40;99.90
46438;DHT22;32137;48.728;9.142;2023-05-25T06:28:09;11.50;99.90
46438;DHT22;32137;48.728;9.142;2023-05-25T06:30:34;11.50;99.90
46438;DHT22;32137;48.728;9.142;2023-05-25T06:33:00;11.50;99.90
46438;DHT22;32137;48.728;9.142;2023-05-25T06:35:26;11.50;99.90
46438;DHT22;32137;48.728;9.142;2023-05-25T06:37:51;11.50;99.90
46438;DHT22;32137;48.728;9.142;2023-05-25T06:40:17;11.50;99.90
46438;DHT22;32137;48.728;9.142;2023-05-25T06:42:43;11.60;99.90
46438;DHT22;32137;48.728;9.142;2023-05-25T06:45:09;11.60;99.90
46438;DHT22;32137;48.728;9.142;2023-05-25T06:47:35;11.60;99.90
46438;DHT22;32137;48.728;9.142;2023-05-25T06:50:00;11.60;99.90
46438;DHT22;32137;48.728;9.142;2023-05-25T06:52:26;11.60;99.90
46438;DHT22;32137;48.728;9.142;2023-05-25T06:54:56;11.70;99.90
46438;DHT22;32137;48.728;9.142;2023-05-25T06:57:24;11.70;99.90
46438;DHT22;32137;48.728;9.142;2023-05-25T06:59:50;11.70;99.90
46438;DHT22;32137;48.728;9.142;2023-05-25T07:02:16;11.80;99.90
46438;DHT22;32137;48.728;9.142;2023-05-25T07:04:43;11.80;99.90
46438;DHT22;32137;48.728;9.142;2023-05-25T07:07:08;11.90;99.90
46438;DHT22;32137;48.728;9.142;2023-05-25T07:09:34;12.00;99.90
46438;DHT22;32137;48.728;9.142;2023-05-25T07:11:59;12.20;99.90
46438;DHT22;32137;48.728;9.142;2023-05-25T07:14:25;12.30;99.90
46438;DHT22;32137;48.728;9.142;2023-05-25T07:16:51;12.40;99.90
46438;DHT22;32137;48.728;9.142;2023-05-25T07:19:16;12.50;99.90
46438;DHT22;32137;48.728;9.142;2023-05-25T07:21:42;12.60;99.90
46438;DHT22;32137;48.728;9.142;2023-05-25T07:24:07;12.70;99.90
46438;DHT22;32137;48.728;9.142;2023-05-25T07:26:34;12.80;99.90
46438;DHT22;32137;48.728;9.142;2023-05-25T07:29:00;12.90;99.90
46438;DHT22;32137;48.728;9.142;2023-05-25T07:31:26;12.90;99.90
46438;DHT22;32137;48.728;9.142;2023-05-25T07:33:51;13.00;99.90
46438;DHT22;32137;48.728;9.142;2023-05-25T07:36:19;13.10;99.90
46438;DHT22;32137;48.728;9.142;2023-05-25T07:38:46;13.10;99.90
46438;DHT22;32137;48.728;9.142;2023-05-25T07:41:11;13.20;99.90
46438;DHT22;32137;48.728;9.142;2023-05-25T07:43:38;13.20;99.90
46438;DHT22;32137;48.728;9.142;2023-05-25T07:46:03;13.30;99.90
46438;DHT22;32137;48.728;9.142;2023-05-25T07:48:29;13.30;99.90
46438;DHT22;32137;48.728;9.142;2023-05-25T07:50:54;13.40;99.90
46438;DHT22;32137;48.728;9.142;2023-05-25T07:53:20;13.50;99.90
46438;DHT22;32137;48.728;9.142;2023-05-25T07:55:46;13.60;99.90
46438;DHT22;32137;48.728;9.142;2023-05-25T07:58:11;13.60;99.90
46438;DHT22;32137;48.728;9.142;2023-05-25T08:00:37;13.70;99.90
46438;DHT22;32137;48.728;9.142;2023-05-25T08:03:02;13.70;99.90
46438;DHT22;32137;48.728;9.142;2023-05-25T08:05:28;13.70;99.90
46438;DHT22;32137;48.728;9.142;2023-05-25T08:07:54;13.60;99.90
46438;DHT22;32137;48.728;9.142;2023-05-25T08:10:20;13.50;99.90
46438;DHT22;32137;48.728;9.142;2023-05-25T08:12:46;13.40;99.90
46438;DHT22;32137;48.728;9.142;2023-05-25T08:15:11;13.40;99.90
46438;DHT22;32137;48.728;9.142;2023-05-25T08:17:38;13.30;99.90
46438;DHT22;32137;48.728;9.142;2023-05-25T08:20:06;13.30;99.90
46438;DHT22;32137;48.728;9.142;2023-05-25T08:22:33;13.30;99.90
46438;DHT22;32137;48.728;9.142;2023-05-25T08:24:58;13.30;99.90
46438;DHT22;32137;48.728;9.142;2023-05-25T08:27:24;13.30;99.90
46438;DHT22;32137;48.728;9.142;2023-05-25T08:29:49;13.30;99.90
46438;DHT22;32137;48.728;9.142;2023-05-25T08:32:15;13.30;99.90
46438;DHT22;32137;48.728;9.142;2023-05-25T08:34:41;13.30;99.90
46438;DHT22;32137;48.728;9.142;2023-05-25T08:37:06;13.40;99.90
46438;DHT22;32137;48.728;9.142;2023-05-25T08:39:31;13.40;99.90
46438;DHT22;32137;48.728;9.142;2023-05-25T08:41:57;13.40;99.90
46438;DHT22;32137;48.728;9.142;2023-05-25T08:44:23;13.40;99.90
46438;DHT22;32137;48.728;9.142;2023-05-25T08:46:48;13.50;99.90
46438;DHT22;32137;48.728;9.142;2023-05-25T08:49:15;13.50;99.90
46438;DHT22;32137;48.728;9.142;2023-05-25T08:52:01;13.50;99.90
46438;DHT22;32137;48.728;9.142;2023-05-25T08:54:36;13.70;99.90
46438;DHT22;32137;48.728;9.142;2023-05-25T08:57:12;13.80;99.90
46438;DHT22;32137;48.728;9.142;2023-05-25T09:04:44;13.90;99.90
46438;DHT22;32137;48.728;9.142;2023-05-25T09:07:10;13.90;99.90
46438;DHT22;32137;48.728;9.142;2023-05-25T09:09:37;14.00;99.90
46438;DHT22;32137;48.728;9.142;2023-05-25T09:12:04;14.00;99.90
46438;DHT22;32137;48.728;9.142;2023-05-25T09:14:30;14.10;99.90
46438;DHT22;32137;48.728;9.142;2023-05-25T09:16:57;14.10;99.90
46438;DHT22;32137;48.728;9.142;2023-05-25T09:19:23;14.30;99.90
46438;DHT22;32137;48.728;9.142;2023-05-25T09:21:48;14.30;99.90
46438;DHT22;32137;48.728;9.142;2023-05-25T09:24:15;14.50;99.90
46438;DHT22;32137;48.728;9.142;2023-05-25T09:26:43;14.70;99.90
46438;DHT22;32137;48.728;9.142;2023-05-25T09:29:12;14.80;99.90
46438;DHT22;32137;48.728;9.142;2023-05-25T09:31:38;15.00;99.90
46438;DHT22;32137;48.728;9.142;2023-05-25T09:34:12;15.10;99.90
46438;DHT22;32137;48.728;9.142;2023-05-25T09:36:40;15.40;99.90
46438;DHT22;32137;48.728;9.142;2023-05-25T09:39:09;15.50;99.90
46438;DHT22;32137;48.728;9.142;2023-05-25T09:41:36;15.60;99.90
46438;DHT22;32137;48.728;9.142;2023-05-25T09:44:03;15.70;99.90
46438;DHT22;32137;48.728;9.142;2023-05-25T09:46:29;15.90;99.90
46438;DHT22;32137;48.728;9.142;2023-05-25T09:48:56;16.00;99.90
46438;DHT22;32137;48.728;9.142;2023-05-25T09:51:22;16.10;99.90
46438;DHT22;32137;48.728;9.142;2023-05-25T09:53:48;16.20;99.90
46438;DHT22;32137;48.728;9.142;2023-05-25T09:56:13;16.30;99.90
46438;DHT22;32137;48.728;9.142;2023-05-25T09:58:40;16.40;99.90
46438;DHT22;32137;48.728;9.142;2023-05-25T10:01:06;16.50;99.90
46438;DHT22;32137;48.728;9.142;2023-05-25T10:03:31;16.70;99.90
46438;DHT22;32137;48.728;9.142;2023-05-25T10:05:57;16.80;99.90
46438;DHT22;32137;48.728;9.142;2023-05-25T10:08:23;17.00;99.90
46438;DHT22;32137;48.728;9.142;2023-05-25T10:10:49;17.20;99.90
46438;DHT22;32137;48.728;9.142;2023-05-25T10:13:20;17.20;99.90
46438;DHT22;32137;48.728;9.142;2023-05-25T10:15:47;17.30;99.90
46438;DHT22;32137;48.728;9.142;2023-05-25T10:18:17;17.30;99.90
46438;DHT22;32137;48.728;9.142;2023-05-25T10:20:44;17.40;99.90
46438;DHT22;32137;48.728;9.142;2023-05-25T10:23:13;17.50;99.90
46438;DHT22;32137;48.728;9.142;2023-05-25T10:25:46;17.60;99.90
46438;DHT22;32137;48.728;9.142;2023-05-25T10:28:29;17.60;99.90
46438;DHT22;32137;48.728;9.142;2023-05-25T10:30:56;17.60;99.90
46438;DHT22;32137;48.728;9.142;2023-05-25T10:33:23;17.50;99.90
46438;DHT22;32137;48.728;9.142;2023-05-25T10:35:49;17.40;99.90
46438;DHT22;32137;48.728;9.142;2023-05-25T10:38:16;17.50;99.90
46438;DHT22;32137;48.728;9.142;2023-05-25T10:40:44;17.60;99.90
46438;DHT22;32137;48.728;9.142;2023-05-25T10:43:13;17.80;99.90
46438;DHT22;32137;48.728;9.142;2023-05-25T10:45:38;17.90;99.90
46438;DHT22;32137;48.728;9.142;2023-05-25T10:48:06;18.10;99.90
46438;DHT22;32137;48.728;9.142;2023-05-25T10:50:34;18.20;99.90
46438;DHT22;32137;48.728;9.142;2023-05-25T10:55:27;18.40;99.90
46438;DHT22;32137;48.728;9.142;2023-05-25T10:58:12;18.50;99.90
46438;DHT22;32137;48.728;9.142;2023-05-25T11:00:39;18.50;99.90
46438;DHT22;32137;48.728;9.142;2023-05-25T11:03:05;18.50;99.90
46438;DHT22;32137;48.728;9.142;2023-05-25T11:05:49;18.50;99.90
46438;DHT22;32137;48.728;9.142;2023-05-25T11:08:15;18.70;99.90
46438;DHT22;32137;48.728;9.142;2023-05-25T11:10:44;18.80;99.90
46438;DHT22;32137;48.728;9.142;2023-05-25T11:18:42;18.80;99.90
46438;DHT22;32137;48.728;9.142;2023-05-25T11:21:21;18.70;99.90
46438;DHT22;32137;48.728;9.142;2023-05-25T11:24:01;18.70;99.90
46438;DHT22;32137;48.728;9.142;2023-05-25T11:26:28;18.70;99.90
46438;DHT22;32137;48.728;9.142;2023-05-25T11:28:55;18.70;99.90
46438;DHT22;32137;48.728;9.142;2023-05-25T11:31:30;18.90;99.90
46438;DHT22;32137;48.728;9.142;2023-05-25T11:34:00;19.20;99.90
46438;DHT22;32137;48.728;9.142;2023-05-25T11:36:27;19.30;99.90
46438;DHT22;32137;48.728;9.142;2023-05-25T11:38:56;19.50;99.90
46438;DHT22;32137;48.728;9.142;2023-05-25T11:41:22;19.50;99.90
46438;DHT22;32137;48.728;9.142;2023-05-25T11:43:49;19.50;99.90
46438;DHT22;32137;48.728;9.142;2023-05-25T11:46:19;19.80;99.90
46438;DHT22;32137;48.728;9.142;2023-05-25T11:48:50;19.90;99.90
46438;DHT22;32137;48.728;9.142;2023-05-25T11:51:17;20.00;99.90
46438;DHT22;32137;48.728;9.142;2023-05-25T11:53:44;20.10;99.90
46438;DHT22;32137;48.728;9.142;2023-05-25T11:56:11;20.20;99.90
46438;DHT22;32137;48.728;9.142;2023-05-25T11:58:37;20.20;99.90
46438;DHT22;32137;48.728;9.142;2023-05-25T12:03:43;20.50;99.90
46438;DHT22;32137;48.728;9.142;2023-05-25T12:06:21;20.30;99.90
46438;DHT22;32137;48.728;9.142;2023-05-25T12:08:47;20.20;99.90
46438;DHT22;32137;48.728;9.142;2023-05-25T12:11:13;20.20;99.90
46438;DHT22;32137;48.728;9.142;2023-05-25T12:13:40;20.10;99.90
46438;DHT22;32137;48.728;9.142;2023-05-25T12:16:06;20.00;99.90
46438;DHT22;32137;48.728;9.142;2023-05-25T12:18:31;20.00;99.90
46438;DHT22;32137;48.728;9.142;2023-05-25T12:20:57;20.00;99.90
46438;DHT22;32137;48.728;9.142;2023-05-25T12:23:23;20.00;99.90
46438;DHT22;32137;48.728;9.142;2023-05-25T12:25:48;20.10;99.90
46438;DHT22;32137;48.728;9.142;2023-05-25T12:28:16;20.20;99.90
46438;DHT22;32137;48.728;9.142;2023-05-25T12:30:42;20.30;99.90
46438;DHT22;32137;48.728;9.142;2023-05-25T12:33:11;20.70;99.90
46438;DHT22;32137;48.728;9.142;2023-05-25T12:35:48;20.90;99.90
46438;DHT22;32137;48.728;9.142;2023-05-25T12:38:18;21.30;99.90
46438;DHT22;32137;48.728;9.142;2023-05-25T12:40:44;21.80;99.90
46438;DHT22;32137;48.728;9.142;2023-05-25T12:43:10;22.50;99.90
46438;DHT22;32137;48.728;9.142;2023-05-25T12:45:40;22.50;99.90
46438;DHT22;32137;48.728;9.142;2023-05-25T12:48:06;22.20;99.90
46438;DHT22;32137;48.728;9.142;2023-05-25T12:50:31;22.20;99.90
46438;DHT22;32137;48.728;9.142;2023-05-25T12:53:01;22.00;99.90
46438;DHT22;32137;48.728;9.142;2023-05-25T12:55:31;21.80;99.90
46438;DHT22;32137;48.728;9.142;2023-05-25T12:58:03;21.70;99.90
46438;DHT22;32137;48.728;9.142;2023-05-25T13:00:38;21.90;99.90
46438;DHT22;32137;48.728;9.142;2023-05-25T13:03:04;22.00;99.90
46438;DHT22;32137;48.728;9.142;2023-05-25T13:05:32;22.00;99.90
46438;DHT22;32137;48.728;9.142;2023-05-25T13:08:00;23.60;99.90
46438;DHT22;32137;48.728;9.142;2023-05-25T13:10:27;24.80;99.90
46438;DHT22;32137;48.728;9.142;2023-05-25T13:12:53;25.00;99.90
46438;DHT22;32137;48.728;9.142;2023-05-25T13:15:22;24.40;99.90
46438;DHT22;32137;48.728;9.142;2023-05-25T13:17:49;24.20;99.90
46438;DHT22;32137;48.728;9.142;2023-05-25T13:20:16;23.70;99.90
46438;DHT22;32137;48.728;9.142;2023-05-25T13:22:44;23.40;99.90
46438;DHT22;32137;48.728;9.142;2023-05-25T13:25:10;24.10;99.90
46438;DHT22;32137;48.728;9.142;2023-05-25T13:27:36;26.20;99.90
46438;DHT22;32137;48.728;9.142;2023-05-25T13:30:06;26.70;99.90
46438;DHT22;32137;48.728;9.142;2023-05-25T13:32:33;28.00;99.90
46438;DHT22;32137;48.728;9.142;2023-05-25T13:34:59;27.60;99.90
46438;DHT22;32137;48.728;9.142;2023-05-25T13:37:25;28.40;99.90
46438;DHT22;32137;48.728;9.142;2023-05-25T13:39:52;30.30;99.90
46438;DHT22;32137;48.728;9.142;2023-05-25T13:42:18;29.20;99.90
46438;DHT22;32137;48.728;9.142;2023-05-25T13:44:43;28.50;99.90
46438;DHT22;32137;48.728;9.142;2023-05-25T13:47:09;28.60;99.90
46438;DHT22;32137;48.728;9.142;2023-05-25T13:49:34;28.10;99.90
46438;DHT22;32137;48.728;9.142;2023-05-25T13:52:00;27.60;99.90
46438;DHT22;32137;48.728;9.142;2023-05-25T13:54:25;27.70;99.90
46438;DHT22;32137;48.728;9.142;2023-05-25T13:56:51;28.00;99.90
46438;DHT22;32137;48.728;9.142;2023-05-25T13:59:16;27.90;99.90
46438;DHT22;32137;48.728;9.142;2023-05-25T14:01:42;27.40;99.90
46438;DHT22;32137;48.728;9.142;2023-05-25T14:04:07;27.10;99.90
46438;DHT22;32137;48.728;9.142;2023-05-25T14:06:34;26.60;99.90
46438;DHT22;32137;48.728;9.142;2023-05-25T14:09:00;26.00;99.90
46438;DHT22;32137;48.728;9.142;2023-05-25T14:11:25;25.40;99.90
46438;DHT22;32137;48.728;9.142;2023-05-25T14:13:51;24.90;99.90
46438;DHT22;32137;48.728;9.142;2023-05-25T14:16:16;24.70;99.90
46438;DHT22;32137;48.728;9.142;2023-05-25T14:18:42;24.70;99.90
46438;DHT22;32137;48.728;9.142;2023-05-25T14:21:08;24.90;99.90
46438;DHT22;32137;48.728;9.142;2023-05-25T14:23:35;24.90;99.90
46438;DHT22;32137;48.728;9.142;2023-05-25T14:26:00;24.90;99.90
46438;DHT22;32137;48.728;9.142;2023-05-25T14:28:26;24.80;99.90
46438;DHT22;32137;48.728;9.142;2023-05-25T14:30:52;24.60;99.90
46438;DHT22;32137;48.728;9.142;2023-05-25T14:33:18;24.40;99.90
46438;DHT22;32137;48.728;9.142;2023-05-25T14:35:43;24.40;99.90
46438;DHT22;32137;48.728;9.142;2023-05-25T14:38:09;24.20;99.90
46438;DHT22;32137;48.728;9.142;2023-05-25T14:40:34;24.00;99.90
46438;DHT22;32137;48.728;9.142;2023-05-25T14:43:00;23.80;99.90
46438;DHT22;32137;48.728;9.142;2023-05-25T14:45:26;23.70;99.90
46438;DHT22;32137;48.728;9.142;2023-05-25T14:47:51;23.60;99.90
46438;DHT22;32137;48.728;9.142;2023-05-25T14:50:17;23.50;99.90
46438;DHT22;32137;48.728;9.142;2023-05-25T14:52:42;23.40;99.90
46438;DHT22;32137;48.728;9.142;2023-05-25T14:55:08;23.40;99.90
46438;DHT22;32137;48.728;9.142;2023-05-25T14:57:34;23.50;99.90
46438;DHT22;32137;48.728;9.142;2023-05-25T15:00:00;23.70;99.90
46438;DHT22;32137;48.728;9.142;2023-05-25T15:02:26;23.80;99.90
46438;DHT22;32137;48.728;9.142;2023-05-25T15:04:51;23.80;99.90
46438;DHT22;32137;48.728;9.142;2023-05-25T15:07:21;23.70;99.90
46438;DHT22;32137;48.728;9.142;2023-05-25T15:09:47;23.80;99.90
46438;DHT22;32137;48.728;9.142;2023-05-25T15:12:13;23.90;99.90
46438;DHT22;32137;48.728;9.142;2023-05-25T15:14:39;24.00;99.90
46438;DHT22;32137;48.728;9.142;2023-05-25T15:17:07;24.00;99.90
46438;DHT22;32137;48.728;9.142;2023-05-25T15:19:32;24.00;99.90
46438;DHT22;32137;48.728;9.142;2023-05-25T15:21:58;24.00;99.90
46438;DHT22;32137;48.728;9.142;2023-05-25T15:24:24;24.00;99.90
46438;DHT22;32137;48.728;9.142;2023-05-25T15:26:49;24.10;99.90
46438;DHT22;32137;48.728;9.142;2023-05-25T15:29:15;24.20;99.90
46438;DHT22;32137;48.728;9.142;2023-05-25T15:31:40;24.20;99.90
46438;DHT22;32137;48.728;9.142;2023-05-25T15:34:06;24.30;99.90
46438;DHT22;32137;48.728;9.142;2023-05-25T15:36:33;24.20;99.90
46438;DHT22;32137;48.728;9.142;2023-05-25T15:38:58;24.30;99.90
46438;DHT22;32137;48.728;9.142;2023-05-25T15:41:24;24.30;99.90
46438;DHT22;32137;48.728;9.142;2023-05-25T15:43:51;24.40;99.90
46438;DHT22;32137;48.728;9.142;2023-05-25T15:46:18;24.40;99.90
46438;DHT22;32137;48.728;9.142;2023-05-25T15:48:44;24.30;99.90
46438;DHT22;32137;48.728;9.142;2023-05-25T15:51:09;24.30;99.90